Time;durP1;ratioP1;P1;durP2;ratioP2;P2;SDS_P1;SDS_P2;PMS_P1;PMS_P2;Temp;Humidity;BMP_temperature;BMP_pressure;BME280_temperature;BME280_humidity;BME280_pressure;Samples;Min_cycle;Max_cycle;Signal;HPM_P1;HPM_P2
2021/11/24 00:01:14;;;;;;;26.55;11.38;;;;;;;7.61;88.15;102800.34;5035144;28;20052;-41
2021/11/24 00:03:39;;;;;;;24.00;10.73;;;;;;;7.60;88.46;102792.41;5034980;28;20088;-41
2021/11/24 00:06:04;;;;;;;20.95;11.73;;;;;;;7.60;88.85;102801.28;5034948;28;20026;-41
2021/11/24 00:08:30;;;;;;;19.58;11.93;;;;;;;7.59;88.77;102796.91;5034864;28;20060;-41
2021/11/24 00:10:55;;;;;;;20.88;12.10;;;;;;;7.55;88.67;102790.06;5034749;28;20025;-41
2021/11/24 00:13:21;;;;;;;21.63;12.57;;;;;;;7.55;88.96;102792.75;5037986;28;20482;-40
2021/11/24 00:15:46;;;;;;;22.50;12.95;;;;;;;7.52;88.10;102792.97;5034983;28;20040;-41
2021/11/24 00:18:11;;;;;;;23.00;13.30;;;;;;;7.53;89.08;102785.78;5034979;28;20060;-41
2021/11/24 00:20:37;;;;;;;25.65;13.75;;;;;;;7.54;88.93;102788.38;5036799;28;20491;-42
2021/11/24 00:23:03;;;;;;;23.25;12.98;;;;;;;7.53;89.17;102778.63;5037389;28;20029;-41
2021/11/24 00:25:28;;;;;;;32.63;13.10;;;;;;;7.52;89.01;102784.94;5037154;28;20025;-41
2021/11/24 00:27:53;;;;;;;28.33;13.82;;;;;;;7.50;88.18;102781.50;5034765;28;20329;-42
2021/11/24 00:30:19;;;;;;;22.17;12.15;;;;;;;7.47;87.96;102779.06;5036196;28;20029;-41
2021/11/24 00:32:44;;;;;;;23.50;12.88;;;;;;;7.40;87.75;102780.50;5052960;28;20468;-41
2021/11/24 00:35:10;;;;;;;23.65;14.00;;;;;;;7.39;87.99;102779.63;5054177;28;20173;-41
2021/11/24 00:37:36;;;;;;;26.27;14.75;;;;;;;7.40;88.72;102785.88;5054232;28;20357;-41
2021/11/24 00:40:02;;;;;;;28.20;13.98;;;;;;;7.41;88.62;102772.34;5054157;28;20029;-41
2021/11/24 00:42:27;;;;;;;22.00;14.07;;;;;;;7.40;88.66;102780.50;5054248;28;20033;-41
2021/11/24 00:44:53;;;;;;;24.80;13.07;;;;;;;7.41;88.68;102768.81;5054108;28;20155;-41
2021/11/24 00:47:18;;;;;;;23.50;13.77;;;;;;;7.38;88.23;102772.59;5054016;28;20029;-40
2021/11/24 00:49:43;;;;;;;30.17;14.23;;;;;;;7.36;87.99;102768.31;5053979;28;20475;-41
2021/11/24 00:52:09;;;;;;;36.20;17.65;;;;;;;7.32;87.96;102774.84;5054063;28;20033;-41
2021/11/24 00:54:35;;;;;;;27.02;16.23;;;;;;;7.32;88.39;102770.38;5053845;28;20039;-42
2021/11/24 00:57:01;;;;;;;33.40;16.90;;;;;;;7.36;88.09;102762.94;5053761;28;20040;-41
2021/11/24 00:59:26;;;;;;;30.80;15.77;;;;;;;7.48;87.89;102767.41;5053724;28;20055;-42
2021/11/24 01:01:52;;;;;;;31.55;16.02;;;;;;;7.64;87.39;102767.09;5053891;28;20029;-40
2021/11/24 01:04:17;;;;;;;24.17;14.40;;;;;;;7.60;87.37;102771.81;5053770;28;20037;-41
2021/11/24 01:06:42;;;;;;;33.78;15.95;;;;;;;7.54;87.91;102766.09;5053455;28;20086;-41
2021/11/24 01:09:08;;;;;;;31.92;16.25;;;;;;;7.52;88.56;102771.53;5053550;28;20070;-41
2021/11/24 01:11:34;;;;;;;29.50;16.00;;;;;;;7.53;88.80;102764.34;5053595;28;20124;-42
2021/11/24 01:14:00;;;;;;;30.70;16.98;;;;;;;7.48;88.42;102762.03;5053195;28;20052;-42
2021/11/24 01:16:25;;;;;;;33.55;17.83;;;;;;;7.46;88.85;102758.63;5051988;28;20472;-42
2021/11/24 01:18:50;;;;;;;30.23;16.75;;;;;;;7.46;88.63;102748.75;5053399;28;20387;-42
2021/11/24 01:21:16;;;;;;;28.60;16.83;;;;;;;7.43;88.61;102737.41;5053479;28;20115;-42
2021/11/24 01:23:42;;;;;;;31.85;17.75;;;;;;;7.44;88.74;102741.78;5053286;28;20047;-41
2021/11/24 01:26:08;;;;;;;31.60;18.55;;;;;;;7.45;88.68;102736.34;5053277;28;20492;-41
2021/11/24 01:28:33;;;;;;;32.03;17.75;;;;;;;7.47;88.69;102736.19;5061270;28;20105;-41
2021/11/24 01:30:59;;;;;;;35.97;17.95;;;;;;;7.49;88.62;102734.28;5049915;28;20028;-42
2021/11/24 01:33:24;;;;;;;34.63;17.20;;;;;;;7.51;88.17;102742.22;5033472;28;20033;-42
2021/11/24 01:35:50;;;;;;;30.40;17.58;;;;;;;7.52;87.89;102743.91;5031833;28;20437;-41
2021/11/24 01:38:15;;;;;;;30.40;17.77;;;;;;;7.47;87.51;102738.88;5031983;28;20404;-42
2021/11/24 01:40:41;;;;;;;38.95;19.58;;;;;;;7.45;88.15;102740.81;5033309;28;20026;-42
2021/11/24 01:43:08;;;;;;;30.92;17.75;;;;;;;7.50;88.42;102735.97;5033403;28;20088;-42
2021/11/24 01:45:35;;;;;;;28.13;17.13;;;;;;;7.59;87.78;102735.28;5033178;28;20040;-42
2021/11/24 01:48:01;;;;;;;35.25;18.02;;;;;;;7.63;87.78;102734.06;5032838;28;20021;-42
2021/11/24 01:50:27;;;;;;;31.85;17.30;;;;;;;7.56;87.11;102722.13;5032898;28;20391;-41
2021/11/24 01:52:52;;;;;;;34.47;18.08;;;;;;;7.51;87.71;102728.81;5032790;28;20085;-41
2021/11/24 01:55:18;;;;;;;37.53;18.88;;;;;;;7.49;87.66;102720.88;5032796;28;20461;-41
2021/11/24 01:57:46;;;;;;;37.47;20.05;;;;;;;7.51;88.44;102718.94;5032895;28;20049;-41
2021/11/24 02:00:14;;;;;;;35.35;19.00;;;;;;;7.52;88.53;102720.63;5032762;28;20022;-42
2021/11/24 02:02:39;;;;;;;33.85;18.05;;;;;;;7.56;88.37;102722.13;5032726;28;20117;-42
2021/11/24 02:05:05;;;;;;;35.28;18.38;;;;;;;7.59;88.51;102726.41;5031260;28;20172;-42
2021/11/24 02:07:31;;;;;;;36.25;17.80;;;;;;;7.58;88.12;102719.31;5032603;28;20105;-42
2021/11/24 02:09:56;;;;;;;32.55;18.95;;;;;;;7.57;88.28;102710.44;5032770;28;20030;-42
2021/11/24 02:12:21;;;;;;;41.47;19.60;;;;;;;7.55;88.32;102715.03;5032660;28;20358;-42
2021/11/24 02:14:47;;;;;;;34.22;19.25;;;;;;;7.60;88.38;102715.53;5032307;28;20056;-41
2021/11/24 02:17:16;;;;;;;33.28;18.70;;;;;;;7.62;88.41;102715.44;5030812;28;20026;-42
2021/11/24 02:19:42;;;;;;;32.65;17.55;;;;;;;7.62;87.68;102710.94;5032300;28;20465;-41
2021/11/24 02:22:08;;;;;;;32.50;17.15;;;;;;;7.63;87.55;102703.75;5032297;28;20160;-42
2021/11/24 02:24:35;;;;;;;32.22;18.45;;;;;;;7.59;88.15;102695.09;5031137;28;20459;-42
2021/11/24 02:27:02;;;;;;;33.80;18.17;;;;;;;7.57;87.73;102691.66;5032334;28;20053;-42
2021/11/24 02:29:28;;;;;;;32.42;16.77;;;;;;;7.55;87.75;102693.59;5031287;28;20057;-42
2021/11/24 02:31:58;;;;;;;33.60;18.67;;;;;;;7.56;87.22;102691.81;5032351;28;20543;-42
2021/11/24 02:34:25;;;;;;;30.58;16.95;;;;;;;7.47;87.77;102680.78;5030952;28;20036;-42
2021/11/24 02:36:50;;;;;;;30.80;17.15;;;;;;;7.53;87.45;102679.50;5032192;28;20075;-41
2021/11/24 02:39:15;;;;;;;33.03;17.95;;;;;;;7.52;88.33;102675.09;5032351;28;20033;-42
2021/11/24 02:41:42;;;;;;;39.22;17.95;;;;;;;7.58;87.75;102668.41;5031977;28;20025;-41
2021/11/24 02:44:22;;;;;;;42.95;19.25;;;;;;;7.59;87.76;102673.66;5032280;28;20029;-41
2021/11/24 02:46:48;;;;;;;32.15;18.05;;;;;;;7.72;87.34;102664.69;5032068;28;20063;-41
2021/11/24 02:49:14;;;;;;;33.83;17.67;;;;;;;7.74;87.04;102660.03;5032049;28;20072;-42
2021/11/24 02:51:40;;;;;;;31.83;18.08;;;;;;;7.72;87.00;102656.66;5032302;28;20095;-42
2021/11/24 02:54:05;;;;;;;39.97;18.88;;;;;;;7.65;87.17;102656.25;5032337;28;20096;-41
2021/11/24 02:56:30;;;;;;;39.13;18.85;;;;;;;7.58;87.64;102645.16;5032242;28;20025;-42
2021/11/24 02:58:56;;;;;;;33.20;18.75;;;;;;;7.56;87.95;102641.75;5032243;28;20060;-41
2021/11/24 03:01:21;;;;;;;36.00;19.08;;;;;;;7.58;88.46;102645.16;5032456;28;20108;-41
2021/11/24 03:03:47;;;;;;;35.00;19.40;;;;;;;7.58;88.81;102638.94;5031061;28;20476;-41
2021/11/24 03:06:12;;;;;;;34.65;18.45;;;;;;;7.56;88.70;102639.06;5030925;28;20104;-41
2021/11/24 03:08:38;;;;;;;33.38;19.52;;;;;;;7.55;88.47;102636.50;5032298;28;20392;-41
2021/11/24 03:11:03;;;;;;;37.33;19.75;;;;;;;7.55;88.35;102631.97;5032091;28;20480;-41
2021/11/24 03:13:28;;;;;;;44.65;19.65;;;;;;;7.56;87.89;102630.19;5031877;28;20131;-41
2021/11/24 03:15:54;;;;;;;32.10;18.85;;;;;;;7.55;87.73;102626.63;5032070;28;20163;-42
2021/11/24 03:18:19;;;;;;;39.25;19.33;;;;;;;7.54;88.14;102622.25;5031874;28;20059;-41
2021/11/24 03:20:44;;;;;;;34.08;19.55;;;;;;;7.54;88.72;102616.03;5031847;28;20025;-42
2021/11/24 03:23:10;;;;;;;34.90;20.25;;;;;;;7.48;88.44;102610.19;5031993;28;20026;-41
2021/11/24 03:25:35;;;;;;;38.15;20.52;;;;;;;7.50;88.46;102601.16;5031961;28;20036;-42
2021/11/24 03:28:01;;;;;;;35.67;19.60;;;;;;;7.53;87.98;102596.44;5031938;28;20029;-41
2021/11/24 03:30:29;;;;;;;38.88;21.23;;;;;;;7.51;88.14;102601.06;5037952;28;20546;-41
2021/11/24 03:32:55;;;;;;;39.05;21.27;;;;;;;7.51;88.36;102600.22;5054256;28;20028;-41
2021/11/24 03:35:22;;;;;;;47.72;19.45;;;;;;;7.41;87.49;102594.69;5055405;28;20020;-41
2021/11/24 03:37:50;;;;;;;41.95;20.50;;;;;;;7.44;87.39;102584.59;5055339;28;20452;-42
2021/11/24 03:40:17;;;;;;;40.95;19.55;;;;;;;7.48;87.40;102579.88;5055286;28;20059;-41
2021/11/24 03:42:46;;;;;;;36.55;18.08;;;;;;;7.47;87.47;102578.13;5054014;28;20104;-42
2021/11/24 03:45:14;;;;;;;36.65;18.13;;;;;;;7.44;87.06;102573.88;5055515;28;20079;-41
2021/11/24 03:47:39;;;;;;;33.20;18.45;;;;;;;7.46;87.43;102571.94;5055117;28;20044;-43
2021/11/24 03:50:05;;;;;;;34.67;18.90;;;;;;;7.50;87.48;102569.84;5055262;28;20388;-41
2021/11/24 03:52:31;;;;;;;37.20;18.95;;;;;;;7.52;87.59;102565.25;5055054;28;20025;-41
2021/11/24 03:54:56;;;;;;;35.85;17.95;;;;;;;7.53;87.03;102566.09;5055032;28;20094;-41
2021/11/24 03:57:21;;;;;;;41.58;19.30;;;;;;;7.53;87.56;102568.75;5055062;28;20400;-42
2021/11/24 03:59:47;;;;;;;39.10;18.52;;;;;;;7.56;87.65;102572.06;5054934;28;20036;-41
2021/11/24 04:02:12;;;;;;;42.92;19.17;;;;;;;7.58;87.89;102570.13;5054897;28;20052;-41
2021/11/24 04:04:38;;;;;;;39.03;19.30;;;;;;;7.59;87.96;102565.63;5054899;28;20545;-41
2021/11/24 04:07:03;;;;;;;41.95;20.30;;;;;;;7.59;87.63;102562.94;5054884;28;20032;-41
2021/11/24 04:09:28;;;;;;;40.55;19.92;;;;;;;7.59;87.92;102569.16;5053543;28;20078;-41
2021/11/24 04:11:54;;;;;;;36.28;20.30;;;;;;;7.60;87.83;102553.94;5054796;28;20453;-43
2021/11/24 04:14:20;;;;;;;37.88;19.75;;;;;;;7.62;87.78;102555.50;5053177;28;20053;-41
2021/11/24 04:16:45;;;;;;;40.15;20.25;;;;;;;7.64;87.83;102561.59;5054509;28;20033;-42
2021/11/24 04:19:10;;;;;;;40.80;20.08;;;;;;;7.62;87.43;102554.66;5054478;28;20032;-42
2021/11/24 04:21:36;;;;;;;38.17;20.45;;;;;;;7.58;87.93;102551.38;5054485;28;20021;-41
2021/11/24 04:24:01;;;;;;;38.20;19.92;;;;;;;7.53;88.05;102545.53;5054575;28;20108;-41
2021/11/24 04:26:27;;;;;;;45.38;21.55;;;;;;;7.48;88.10;102537.00;5054726;28;20053;-43
2021/11/24 04:28:52;;;;;;;41.20;20.02;;;;;;;7.48;88.04;102535.16;5057106;28;20119;-41
2021/11/24 04:31:18;;;;;;;40.05;21.15;;;;;;;7.50;87.81;102535.03;5054442;28;20078;-41
2021/11/24 04:33:43;;;;;;;42.45;21.17;;;;;;;7.49;87.91;102533.34;5034776;28;20100;-41
2021/11/24 04:36:08;;;;;;;46.67;21.10;;;;;;;7.53;88.28;102534.81;5034740;28;20030;-41
2021/11/24 04:38:34;;;;;;;40.70;20.92;;;;;;;7.51;87.55;102526.03;5034720;28;20032;-41
2021/11/24 04:40:59;;;;;;;42.45;21.45;;;;;;;7.53;87.60;102524.09;5034532;28;20032;-41
2021/11/24 04:43:30;;;;;;;43.92;21.17;;;;;;;7.56;87.23;102523.84;5035006;28;20095;-42
2021/11/24 04:45:56;;;;;;;36.25;20.73;;;;;;;7.58;87.23;102524.59;5035023;28;20033;-42
2021/11/24 04:48:21;;;;;;;44.33;20.33;;;;;;;7.63;87.03;102518.84;5034412;28;20033;-41
2021/11/24 04:50:46;;;;;;;34.22;18.42;;;;;;;7.61;86.66;102516.31;5034021;28;20037;-41
2021/11/24 04:53:12;;;;;;;41.08;20.02;;;;;;;7.63;87.04;102513.47;5034058;28;20083;-41
2021/11/24 04:55:38;;;;;;;36.55;20.10;;;;;;;7.66;86.91;102507.88;5034069;28;20116;-41
2021/11/24 04:58:03;;;;;;;39.17;18.45;;;;;;;7.66;86.66;102510.56;5034028;28;20083;-41
2021/11/24 05:00:29;;;;;;;32.13;18.02;;;;;;;7.65;86.49;102506.19;5033790;28;20523;-41
2021/11/24 05:02:55;;;;;;;31.52;16.30;;;;;;;7.65;86.28;102501.66;5034015;28;20031;-42
2021/11/24 05:05:23;;;;;;;32.30;17.50;;;;;;;7.63;85.99;102505.44;5033688;28;20030;-41
2021/11/24 05:07:48;;;;;;;43.35;18.25;;;;;;;7.64;86.21;102502.66;5033709;28;20025;-42
2021/11/24 05:10:14;;;;;;;40.40;17.08;;;;;;;7.64;86.37;102502.66;5033715;28;20436;-42
2021/11/24 05:12:39;;;;;;;33.63;17.33;;;;;;;7.65;86.00;102501.66;5033758;28;20030;-41
2021/11/24 05:15:05;;;;;;;39.22;18.02;;;;;;;7.57;86.43;102500.59;5033211;28;20053;-41
2021/11/24 05:17:33;;;;;;;42.35;17.08;;;;;;;7.49;86.25;102495.81;5032561;28;20029;-42
2021/11/24 05:19:59;;;;;;;37.63;17.97;;;;;;;7.52;86.44;102489.38;5033759;28;20021;-41
2021/11/24 05:22:24;;;;;;;34.45;16.73;;;;;;;7.45;86.78;102480.97;5033613;28;20351;-41
2021/11/24 05:24:50;;;;;;;36.72;17.55;;;;;;;7.47;87.00;102481.69;5033542;28;20117;-41
2021/11/24 05:27:15;;;;;;;33.03;17.23;;;;;;;7.48;87.02;102473.56;5033423;28;20018;-42
2021/11/24 05:29:41;;;;;;;38.63;17.50;;;;;;;7.45;87.03;102478.28;5033341;28;20128;-41
2021/11/24 05:32:07;;;;;;;37.22;17.67;;;;;;;7.45;87.07;102480.97;5033167;28;20056;-41
2021/11/24 05:34:32;;;;;;;37.13;17.25;;;;;;;7.48;87.37;102480.75;5033171;28;20042;-41
2021/11/24 05:36:57;;;;;;;36.53;16.80;;;;;;;7.51;86.83;102480.50;5033177;28;20022;-41
2021/11/24 05:39:23;;;;;;;32.92;16.70;;;;;;;7.53;87.35;102488.38;5033170;28;20034;-42
2021/11/24 05:41:48;;;;;;;32.35;17.73;;;;;;;7.53;86.99;102485.72;5033077;28;20096;-41
2021/11/24 05:44:25;;;;;;;32.17;16.50;;;;;;;7.50;87.29;102488.63;5032988;28;20109;-41
2021/11/24 05:46:57;;;;;;;40.20;16.35;;;;;;;7.58;87.11;102492.44;5047522;28;20037;-42
2021/11/24 05:49:24;;;;;;;31.73;16.23;;;;;;;7.55;87.07;102486.44;5051839;28;20036;-42
2021/11/24 05:51:50;;;;;;;37.13;16.77;;;;;;;7.55;87.19;102489.97;5052486;28;20388;-41
2021/11/24 05:54:15;;;;;;;37.75;17.48;;;;;;;7.56;87.19;102486.34;5051492;28;20429;-42
2021/11/24 05:56:41;;;;;;;34.47;17.83;;;;;;;7.55;87.53;102484.63;5032625;28;20029;-41
2021/11/24 05:59:08;;;;;;;41.35;17.35;;;;;;;7.54;87.15;102482.06;5033095;28;20029;-41
2021/11/24 06:01:34;;;;;;;37.25;18.83;;;;;;;7.55;87.47;102479.25;5032787;28;20018;-41
2021/11/24 06:04:00;;;;;;;38.45;19.85;;;;;;;7.55;87.87;102473.91;5043514;28;20067;-41
2021/11/24 06:06:25;;;;;;;39.17;18.75;;;;;;;7.55;87.78;102468.53;5056204;28;20573;-41
2021/11/24 06:08:51;;;;;;;47.63;19.98;;;;;;;7.54;87.99;102466.84;5052585;28;20495;-41
2021/11/24 06:11:16;;;;;;;42.30;19.42;;;;;;;7.60;87.55;102466.34;5045891;28;20144;-41
2021/11/24 06:13:41;;;;;;;44.00;21.60;;;;;;;7.57;87.76;102460.41;5045781;28;20049;-42
2021/11/24 06:16:07;;;;;;;50.55;23.10;;;;;;;7.51;88.01;102460.91;5052635;28;20051;-43
2021/11/24 06:18:32;;;;;;;56.13;23.17;;;;;;;7.49;87.58;102452.97;5031420;28;20507;-41
